createdAt,value
2023-08-14T00:01:30.973Z,2.50
2023-08-14T00:03:58.328Z,3.00
2023-08-14T00:06:25.658Z,3.30
2023-08-14T00:08:53.267Z,3.03
2023-08-14T00:11:20.626Z,2.63
2023-08-14T00:13:57.260Z,2.83
2023-08-14T00:16:25.891Z,3.10
2023-08-14T00:18:54.530Z,2.70
2023-08-14T00:21:23.654Z,3.35
2023-08-14T00:23:51.308Z,2.90
2023-08-14T00:26:18.831Z,3.00
2023-08-14T00:28:46.107Z,3.28
2023-08-14T00:31:13.551Z,3.05
2023-08-14T00:33:40.934Z,3.25
2023-08-14T00:36:08.245Z,2.97
2023-08-14T00:38:35.750Z,3.05
2023-08-14T00:41:03.135Z,3.03
2023-08-14T00:43:31.004Z,3.00
2023-08-14T00:45:59.129Z,3.20
2023-08-14T00:48:27.025Z,3.42
2023-08-14T00:50:55.348Z,2.72
2023-08-14T00:53:26.225Z,3.20
2023-08-14T00:55:54.537Z,3.15
2023-08-14T00:58:23.955Z,3.20
2023-08-14T01:00:51.847Z,2.72
2023-08-14T01:03:21.441Z,3.33
2023-08-14T01:05:48.905Z,3.15
2023-08-14T01:08:16.328Z,2.83
2023-08-14T01:10:51.208Z,3.20
2023-08-14T01:13:32.224Z,2.97
2023-08-14T01:16:04.506Z,3.33
2023-08-14T01:18:34.784Z,2.60
2023-08-14T01:21:10.168Z,3.22
2023-08-14T01:24:02.264Z,3.25
2023-08-14T01:26:30.350Z,2.78
2023-08-14T01:28:58.213Z,3.08
2023-08-14T01:31:25.828Z,2.95
2023-08-14T01:33:53.181Z,2.90
2023-08-14T01:36:41.764Z,3.10
2023-08-14T01:39:10.938Z,2.80
2023-08-14T01:41:43.819Z,3.08
2023-08-14T01:44:15.429Z,2.90
2023-08-14T01:46:44.541Z,3.13
2023-08-14T01:49:15.505Z,3.40
2023-08-14T01:51:44.228Z,3.15
2023-08-14T01:54:11.588Z,3.08
2023-08-14T01:56:38.972Z,3.08
2023-08-14T01:59:06.327Z,2.95
2023-08-14T02:01:33.674Z,3.40
2023-08-14T02:04:01.033Z,3.10
2023-08-14T02:06:29.224Z,2.97
2023-08-14T02:08:56.494Z,2.85
2023-08-14T02:11:23.850Z,3.45
2023-08-14T02:13:51.218Z,3.10
2023-08-14T02:16:18.677Z,3.17
2023-08-14T02:18:46.118Z,2.80
2023-08-14T02:21:13.431Z,3.05
2023-08-14T02:23:40.791Z,3.30
2023-08-14T02:26:09.437Z,3.15
2023-08-14T02:28:36.783Z,3.50
2023-08-14T02:31:05.694Z,2.80
2023-08-14T02:33:33.136Z,3.13
2023-08-14T02:36:00.544Z,3.55
2023-08-14T02:38:27.998Z,3.00
2023-08-14T02:40:55.277Z,2.75
2023-08-14T02:43:22.643Z,2.88
2023-08-14T02:45:50.017Z,2.90
2023-08-14T02:48:17.372Z,3.63
2023-08-14T02:50:44.708Z,3.30
2023-08-14T02:53:12.017Z,3.08
2023-08-14T02:55:39.428Z,2.90
2023-08-14T02:58:06.756Z,3.53
2023-08-14T03:00:34.132Z,3.28
2023-08-14T03:03:01.547Z,3.15
2023-08-14T03:05:29.236Z,3.30
2023-08-14T03:07:56.509Z,2.80
2023-08-14T03:10:24.151Z,3.55
2023-08-14T03:12:51.450Z,2.78
2023-08-14T03:15:18.896Z,2.92
2023-08-14T03:17:47.053Z,3.35
2023-08-14T03:20:14.752Z,3.28
2023-08-14T03:22:42.464Z,3.00
2023-08-14T03:25:10.091Z,2.75
2023-08-14T03:27:38.196Z,2.92
2023-08-14T03:30:05.997Z,2.80
2023-08-14T03:32:34.611Z,2.80
2023-08-14T03:35:02.024Z,3.47
2023-08-14T03:37:30.083Z,3.20
2023-08-14T03:39:57.383Z,3.35
2023-08-14T03:42:24.668Z,3.30
2023-08-14T03:44:52.034Z,3.10
2023-08-14T03:47:19.441Z,3.45
2023-08-14T03:49:46.795Z,3.40
2023-08-14T03:52:14.328Z,3.30
2023-08-14T03:54:41.706Z,3.00
2023-08-14T03:57:09.630Z,3.20
2023-08-14T03:59:36.964Z,3.53
2023-08-14T04:02:04.367Z,3.03
2023-08-14T04:04:31.689Z,2.97
2023-08-14T04:06:59.655Z,3.60
2023-08-14T04:09:28.453Z,3.45
2023-08-14T04:11:55.755Z,3.28
2023-08-14T04:14:24.547Z,3.38
2023-08-14T04:16:51.920Z,3.30
2023-08-14T04:19:20.408Z,3.08
2023-08-14T04:21:47.874Z,2.90
2023-08-14T04:24:15.169Z,3.45
2023-08-14T04:26:42.554Z,3.45
2023-08-14T04:29:11.091Z,3.08
2023-08-14T04:31:39.839Z,3.05
2023-08-14T04:34:08.125Z,3.13
2023-08-14T04:36:36.934Z,2.90
2023-08-14T04:39:05.511Z,2.75
2023-08-14T04:41:32.834Z,3.25
2023-08-14T04:44:00.181Z,3.40
2023-08-14T04:46:38.248Z,3.70
2023-08-14T04:49:09.153Z,3.60
2023-08-14T04:51:36.543Z,3.58
2023-08-14T04:54:04.092Z,3.60
2023-08-14T04:56:32.420Z,3.85
2023-08-14T04:58:59.777Z,3.65
2023-08-14T05:01:27.113Z,3.40
2023-08-14T05:03:54.390Z,3.40
2023-08-14T05:06:21.697Z,4.38
2023-08-14T05:08:49.035Z,3.92
2023-08-14T05:11:16.368Z,4.05
2023-08-14T05:13:45.754Z,4.40
2023-08-14T05:16:13.427Z,3.72
2023-08-14T05:18:40.781Z,3.70
2023-08-14T05:21:08.288Z,3.58
2023-08-14T05:23:35.649Z,3.50
2023-08-14T05:26:02.983Z,4.03
2023-08-14T05:28:30.414Z,3.90
2023-08-14T05:30:57.733Z,3.85
2023-08-14T05:33:25.030Z,4.22
2023-08-14T05:35:52.438Z,3.40
2023-08-14T05:38:19.788Z,3.58
2023-08-14T05:40:47.087Z,4.03
2023-08-14T05:43:14.406Z,3.88
2023-08-14T05:45:46.803Z,4.32
2023-08-14T05:48:15.404Z,4.18
2023-08-14T05:50:43.190Z,4.13
2023-08-14T05:53:10.521Z,4.80
2023-08-14T05:55:42.749Z,4.25
2023-08-14T05:58:10.156Z,4.65
2023-08-14T06:00:40.000Z,3.85
2023-08-14T06:03:10.047Z,4.30
2023-08-14T06:05:37.549Z,4.00
2023-08-14T06:08:06.208Z,4.55
2023-08-14T06:10:33.680Z,4.40
2023-08-14T06:13:01.097Z,4.20
2023-08-14T06:15:28.978Z,4.65
2023-08-14T06:17:56.391Z,5.20
2023-08-14T06:20:23.807Z,4.20
2023-08-14T06:22:51.147Z,4.03
2023-08-14T06:25:19.522Z,4.28
2023-08-14T06:27:46.897Z,4.35
2023-08-14T06:30:16.086Z,3.83
2023-08-14T06:32:43.469Z,3.80
2023-08-14T06:35:10.914Z,4.18
2023-08-14T06:37:38.248Z,3.78
2023-08-14T06:40:06.222Z,3.60
2023-08-14T06:42:33.601Z,3.40
2023-08-14T06:45:00.941Z,3.20
2023-08-14T06:47:28.360Z,3.10
2023-08-14T06:49:55.662Z,3.47
2023-08-14T06:52:23.002Z,3.17
2023-08-14T06:54:50.356Z,3.25
2023-08-14T06:57:17.631Z,2.70
2023-08-14T06:59:46.718Z,2.88
2023-08-14T07:02:14.261Z,2.83
2023-08-14T07:04:41.761Z,2.75
2023-08-14T07:07:09.077Z,2.78
2023-08-14T07:09:36.459Z,2.80
2023-08-14T07:12:04.072Z,2.58
2023-08-14T07:14:32.677Z,2.63
2023-08-14T07:17:00.022Z,2.78
2023-08-14T07:19:27.351Z,2.80
2023-08-14T07:21:54.669Z,2.38
2023-08-14T07:24:22.062Z,2.45
2023-08-14T07:26:49.341Z,2.58
2023-08-14T07:29:19.802Z,2.85
2023-08-14T07:31:47.361Z,2.53
2023-08-14T07:34:14.780Z,3.22
2023-08-14T07:36:42.230Z,2.22
2023-08-14T07:39:09.677Z,2.70
2023-08-14T07:41:36.992Z,2.28
2023-08-14T07:44:04.591Z,2.20
2023-08-14T07:46:31.923Z,2.30
2023-08-14T07:48:59.310Z,2.40
2023-08-14T07:51:26.951Z,2.40
2023-08-14T07:53:54.507Z,1.75
2023-08-14T07:56:22.029Z,2.00
2023-08-14T07:58:49.456Z,1.77
2023-08-14T08:01:17.403Z,1.70
2023-08-14T08:03:45.192Z,2.03
2023-08-14T08:06:12.659Z,1.63
2023-08-14T08:08:40.965Z,2.08
2023-08-14T08:11:10.017Z,1.77
2023-08-14T08:13:37.365Z,1.83
2023-08-14T08:16:04.767Z,1.52
2023-08-14T08:18:32.085Z,2.47
2023-08-14T08:20:59.432Z,1.92
2023-08-14T08:23:26.735Z,1.90
2023-08-14T08:25:54.212Z,2.00
2023-08-14T08:28:21.491Z,2.17
2023-08-14T08:30:48.850Z,1.90
2023-08-14T08:33:16.156Z,1.85
2023-08-14T08:35:43.671Z,1.70
2023-08-14T08:38:10.927Z,1.80
2023-08-14T08:40:42.465Z,1.98
2023-08-14T08:43:11.123Z,1.70
2023-08-14T08:45:42.407Z,1.83
2023-08-14T08:48:09.887Z,2.00
2023-08-14T08:50:38.235Z,1.92
2023-08-14T08:53:06.215Z,2.08
2023-08-14T08:55:33.780Z,1.77
2023-08-14T08:58:02.783Z,1.90
2023-08-14T09:00:30.328Z,1.80
2023-08-14T09:02:57.769Z,1.75
2023-08-14T09:05:25.591Z,1.90
2023-08-14T09:07:53.128Z,1.90
2023-08-14T09:10:20.475Z,2.05
2023-08-14T09:12:47.792Z,2.15
2023-08-14T09:15:16.320Z,1.38
2023-08-14T09:17:43.788Z,1.67
2023-08-14T09:20:24.335Z,2.03
2023-08-14T09:22:59.206Z,2.08
2023-08-14T09:25:27.438Z,1.67
2023-08-14T09:27:56.743Z,1.70
2023-08-14T09:30:27.752Z,1.85
2023-08-14T09:32:56.895Z,2.22
2023-08-14T09:35:24.449Z,2.17
2023-08-14T09:37:51.937Z,1.77
2023-08-14T09:40:19.292Z,2.00
2023-08-14T09:42:49.833Z,2.33
2023-08-14T09:45:18.840Z,2.40
2023-08-14T09:47:51.143Z,2.05
2023-08-14T09:50:21.365Z,2.30
2023-08-14T09:52:50.133Z,2.00
2023-08-14T09:55:18.312Z,2.63
2023-08-14T09:57:46.910Z,2.88
2023-08-14T10:00:14.818Z,3.05
2023-08-14T10:02:43.828Z,2.90
2023-08-14T10:05:11.795Z,2.92
2023-08-14T10:07:40.988Z,2.75
2023-08-14T10:10:09.672Z,3.20
2023-08-14T10:12:57.378Z,3.00
2023-08-14T10:15:33.509Z,3.08
2023-08-14T10:18:11.053Z,3.00
2023-08-14T10:20:40.567Z,3.17
2023-08-14T10:23:12.057Z,3.10
2023-08-14T10:25:40.252Z,3.15
2023-08-14T10:28:10.736Z,3.30
2023-08-14T10:30:39.669Z,2.95
2023-08-14T10:33:07.878Z,2.70
2023-08-14T10:35:52.586Z,2.78
2023-08-14T10:38:25.313Z,2.58
2023-08-14T10:41:05.311Z,2.90
2023-08-14T10:43:32.713Z,2.78
2023-08-14T10:46:00.064Z,2.67
2023-08-14T10:48:27.387Z,2.53
2023-08-14T10:51:01.064Z,2.53
2023-08-14T10:53:31.096Z,2.40
2023-08-14T10:55:59.780Z,2.47
2023-08-14T10:58:32.954Z,2.67
2023-08-14T11:03:56.388Z,3.08
2023-08-14T11:06:28.441Z,3.00
2023-08-14T11:09:06.388Z,2.35
2023-08-14T11:11:33.719Z,2.67
2023-08-14T11:14:01.167Z,2.65
2023-08-14T11:16:29.224Z,2.80
2023-08-14T11:18:59.372Z,2.55
2023-08-14T11:21:31.995Z,2.50
2023-08-14T11:24:00.177Z,2.70
2023-08-14T11:26:31.714Z,2.38
2023-08-14T11:28:59.079Z,2.40
2023-08-14T11:31:33.934Z,2.83
2023-08-14T11:34:02.467Z,2.70
2023-08-14T11:36:34.467Z,2.88
2023-08-14T11:39:02.563Z,2.53
2023-08-14T11:41:31.985Z,3.20
2023-08-14T11:43:59.861Z,2.70
2023-08-14T11:46:27.450Z,4.55
2023-08-14T11:48:54.797Z,3.20
2023-08-14T11:51:22.163Z,2.40
2023-08-14T11:53:49.713Z,2.40
2023-08-14T11:56:17.107Z,2.25
2023-08-14T11:58:49.870Z,2.55
2023-08-14T12:01:25.354Z,2.63
2023-08-14T12:03:53.910Z,2.95
2023-08-14T12:06:21.692Z,2.42
2023-08-14T12:08:49.112Z,2.42
2023-08-14T12:11:18.074Z,2.85
2023-08-14T12:13:54.009Z,2.47
2023-08-14T12:16:23.055Z,2.22
2023-08-14T12:18:51.200Z,2.50
2023-08-14T12:21:18.631Z,2.30
2023-08-14T12:23:48.223Z,2.45
2023-08-14T12:26:16.697Z,2.30
2023-08-14T12:28:44.477Z,2.53
2023-08-14T12:31:15.681Z,4.25
2023-08-14T12:33:45.203Z,2.90
2023-08-14T12:36:14.386Z,2.50
2023-08-14T12:38:41.727Z,2.67
2023-08-14T12:41:09.119Z,2.53
2023-08-14T12:43:40.171Z,2.42
2023-08-14T12:46:11.413Z,2.35
2023-08-14T12:48:38.905Z,2.05
2023-08-14T12:53:53.574Z,2.15
2023-08-14T12:59:09.042Z,2.42
2023-08-14T13:01:36.447Z,2.50
2023-08-14T13:04:07.735Z,3.45
2023-08-14T13:06:35.426Z,2.80
2023-08-14T13:09:03.053Z,2.67
2023-08-14T13:11:30.585Z,2.95
2023-08-14T13:13:58.116Z,2.63
2023-08-14T13:16:25.832Z,2.70
2023-08-14T13:18:53.575Z,2.28
2023-08-14T13:21:20.883Z,2.40
2023-08-14T13:23:50.321Z,2.40
2023-08-14T13:26:26.883Z,2.50
2023-08-14T13:28:55.580Z,2.70
2023-08-14T13:31:23.082Z,2.40
2023-08-14T13:33:51.112Z,2.45
2023-08-14T13:36:18.567Z,2.67
2023-08-14T13:38:45.962Z,2.30
2023-08-14T13:41:13.465Z,2.42
2023-08-14T13:43:41.061Z,2.40
2023-08-14T13:46:08.574Z,2.38
2023-08-14T13:48:35.910Z,2.20
2023-08-14T13:51:03.410Z,2.13
2023-08-14T13:53:30.875Z,2.42
2023-08-14T13:55:58.324Z,2.28
2023-08-14T13:58:25.696Z,2.30
2023-08-14T14:00:53.076Z,2.60
2023-08-14T14:03:20.457Z,1.95
2023-08-14T14:05:47.907Z,2.50
2023-08-14T14:08:15.255Z,2.38
2023-08-14T14:10:42.603Z,2.55
2023-08-14T14:13:10.112Z,2.22
2023-08-14T14:15:39.338Z,2.30
2023-08-14T14:18:07.999Z,2.13
2023-08-14T14:20:36.189Z,2.58
2023-08-14T14:23:03.628Z,2.50
2023-08-14T14:25:31.158Z,2.40
2023-08-14T14:27:59.743Z,2.58
2023-08-14T14:30:27.730Z,2.50
2023-08-14T14:32:55.133Z,2.65
2023-08-14T14:35:22.659Z,2.92
2023-08-14T14:37:49.998Z,2.30
2023-08-14T14:40:17.385Z,2.28
2023-08-14T14:42:44.734Z,2.30
2023-08-14T14:45:20.618Z,2.72
2023-08-14T14:47:56.111Z,2.70
2023-08-14T14:50:29.676Z,2.50
2023-08-14T14:52:58.448Z,2.75
2023-08-14T14:55:27.521Z,2.33
2023-08-14T14:57:54.910Z,2.50
2023-08-14T15:00:22.664Z,2.25
2023-08-14T15:02:51.312Z,2.42
2023-08-14T15:07:49.126Z,2.33
2023-08-14T15:10:16.866Z,2.20
2023-08-14T15:12:44.416Z,2.60
2023-08-14T15:15:11.998Z,2.50
2023-08-14T15:17:44.013Z,2.25
2023-08-14T15:20:14.061Z,2.17
2023-08-14T15:22:44.307Z,2.20
2023-08-14T15:25:13.264Z,2.47
2023-08-14T15:27:40.640Z,2.30
2023-08-14T15:30:09.874Z,2.33
2023-08-14T15:32:37.410Z,2.40
2023-08-14T15:35:05.326Z,2.53
2023-08-14T15:37:32.754Z,2.20
2023-08-14T15:40:00.235Z,2.05
2023-08-14T15:42:27.625Z,2.60
2023-08-14T15:44:55.853Z,2.33
2023-08-14T15:47:23.846Z,2.15
2023-08-14T15:49:51.243Z,2.20
2023-08-14T15:52:19.066Z,1.90
2023-08-14T15:54:53.486Z,2.10
2023-08-14T15:57:22.658Z,2.30
2023-08-14T15:59:51.122Z,2.20
2023-08-14T16:02:22.784Z,2.55
2023-08-14T16:04:51.536Z,2.53
2023-08-14T16:07:19.734Z,2.28
2023-08-14T16:09:51.227Z,2.33
2023-08-14T16:12:19.359Z,2.60
2023-08-14T16:14:47.499Z,2.47
2023-08-14T16:17:15.178Z,2.42
2023-08-14T16:19:42.515Z,2.03
2023-08-14T16:22:09.968Z,3.00
2023-08-14T16:24:39.790Z,2.40
2023-08-14T16:27:08.254Z,2.60
2023-08-14T16:29:35.567Z,2.25
2023-08-14T16:32:02.938Z,2.13
2023-08-14T16:34:30.400Z,2.10
2023-08-14T16:36:57.753Z,2.33
2023-08-14T16:39:25.113Z,2.00
2023-08-14T16:41:52.468Z,2.10
2023-08-14T16:44:21.531Z,2.30
2023-08-14T16:46:48.899Z,1.80
2023-08-14T16:49:16.297Z,2.25
2023-08-14T16:51:43.598Z,2.00
2023-08-14T16:54:10.977Z,2.45
2023-08-14T16:56:39.864Z,2.63
2023-08-14T16:59:07.367Z,2.17
2023-08-14T17:01:35.616Z,1.90
2023-08-14T17:04:04.395Z,2.00
2023-08-14T17:06:32.009Z,2.30
2023-08-14T17:08:59.416Z,2.45
2023-08-14T17:11:26.831Z,2.20
2023-08-14T17:13:54.246Z,2.28
2023-08-14T17:16:21.558Z,2.08
2023-08-14T17:18:48.975Z,2.15
2023-08-14T17:21:16.376Z,2.38
2023-08-14T17:23:43.794Z,2.65
2023-08-14T17:26:11.058Z,2.20
2023-08-14T17:28:38.476Z,2.22
2023-08-14T17:31:05.770Z,2.03
2023-08-14T17:33:33.260Z,2.35
2023-08-14T17:36:00.533Z,2.30
2023-08-14T17:38:27.926Z,2.55
2023-08-14T17:40:55.617Z,2.50
2023-08-14T17:43:23.126Z,2.45
2023-08-14T17:45:51.023Z,2.30
2023-08-14T17:48:18.498Z,2.42
2023-08-14T17:50:53.218Z,2.20
2023-08-14T17:53:21.388Z,2.83
2023-08-14T17:55:48.879Z,2.30
2023-08-14T17:58:16.353Z,2.08
2023-08-14T18:00:49.008Z,2.50
2023-08-14T18:03:16.651Z,2.13
2023-08-14T18:05:54.354Z,2.38
2023-08-14T18:08:22.166Z,2.30
2023-08-14T18:10:50.338Z,2.60
2023-08-14T18:13:17.730Z,2.20
2023-08-14T18:15:45.703Z,2.40
2023-08-14T18:18:13.125Z,2.75
2023-08-14T18:20:40.466Z,2.85
2023-08-14T18:23:08.305Z,2.60
2023-08-14T18:25:35.699Z,2.50
2023-08-14T18:28:03.158Z,2.58
2023-08-14T18:30:30.808Z,2.47
2023-08-14T18:32:58.245Z,2.20
2023-08-14T18:35:25.836Z,2.58
2023-08-14T18:37:54.331Z,2.22
2023-08-14T18:40:21.715Z,2.40
2023-08-14T18:42:49.055Z,2.35
2023-08-14T18:45:17.115Z,2.53
2023-08-14T18:47:45.006Z,2.20
2023-08-14T18:50:13.806Z,2.80
2023-08-14T18:52:41.439Z,2.92
2023-08-14T18:55:09.720Z,3.45
2023-08-14T18:57:37.378Z,2.95
2023-08-14T19:00:10.966Z,3.20
2023-08-14T19:02:38.400Z,2.75
2023-08-14T19:05:06.579Z,3.08
2023-08-14T19:07:33.853Z,3.63
2023-08-14T19:10:01.193Z,3.25
2023-08-14T19:12:30.300Z,3.40
2023-08-14T19:14:57.646Z,3.75
2023-08-14T19:17:24.996Z,3.90
2023-08-14T19:19:52.344Z,4.38
2023-08-14T19:22:19.924Z,3.97
2023-08-14T19:24:47.345Z,3.88
2023-08-14T19:27:14.816Z,3.60
2023-08-14T19:29:43.119Z,3.63
2023-08-14T19:32:10.550Z,4.25
2023-08-14T19:34:37.937Z,3.50
2023-08-14T19:37:05.550Z,4.00
2023-08-14T19:39:33.033Z,3.88
2023-08-14T19:42:00.398Z,4.00
2023-08-14T19:44:27.728Z,3.90
2023-08-14T19:46:55.121Z,4.47
2023-08-14T19:49:22.504Z,4.45
2023-08-14T19:51:49.947Z,4.15
2023-08-14T19:54:17.291Z,4.30
2023-08-14T19:56:44.624Z,4.07
2023-08-14T19:59:11.952Z,3.85
2023-08-14T20:01:39.390Z,6.07
2023-08-14T20:04:07.138Z,6.70
2023-08-14T20:06:34.684Z,5.82
2023-08-14T20:09:02.607Z,5.43
2023-08-14T20:11:30.267Z,5.00
2023-08-14T20:13:57.605Z,3.60
2023-08-14T20:16:25.020Z,4.03
2023-08-14T20:18:53.906Z,3.97
2023-08-14T20:21:21.393Z,4.18
2023-08-14T20:23:48.806Z,3.90
2023-08-14T20:26:16.148Z,3.88
2023-08-14T20:28:44.570Z,3.90
2023-08-14T20:31:19.175Z,4.22
2023-08-14T20:33:46.978Z,3.50
2023-08-14T20:36:28.103Z,3.67
2023-08-14T20:38:55.465Z,3.78
2023-08-14T20:41:22.875Z,3.63
2023-08-14T20:43:50.206Z,4.70
2023-08-14T20:46:17.685Z,4.05
2023-08-14T20:48:45.092Z,3.90
2023-08-14T20:51:13.135Z,3.70
2023-08-14T20:53:41.212Z,4.40
2023-08-14T20:56:08.681Z,4.05
2023-08-14T20:58:36.122Z,4.30
2023-08-14T21:01:03.532Z,4.20
2023-08-14T21:03:31.065Z,3.88
2023-08-14T21:05:58.653Z,3.75
2023-08-14T21:08:26.076Z,4.20
2023-08-14T21:10:53.630Z,4.20
2023-08-14T21:13:21.387Z,4.30
2023-08-14T21:15:48.781Z,4.43
2023-08-14T21:18:16.283Z,4.70
2023-08-14T21:20:44.566Z,4.78
2023-08-14T21:23:13.366Z,5.05
2023-08-14T21:25:47.723Z,3.92
2023-08-14T21:28:16.724Z,4.40
2023-08-14T21:30:44.379Z,4.40
2023-08-14T21:33:11.759Z,4.80
2023-08-14T21:35:39.146Z,4.50
2023-08-14T21:38:06.528Z,4.50
2023-08-14T21:40:39.031Z,4.75
2023-08-14T21:43:06.334Z,5.10
2023-08-14T21:45:37.481Z,5.00
2023-08-14T21:48:05.085Z,5.07
2023-08-14T21:50:36.479Z,5.20
2023-08-14T21:53:04.728Z,4.18
2023-08-14T21:55:32.135Z,4.80
2023-08-14T21:57:59.438Z,4.85
2023-08-14T22:00:26.769Z,5.10
2023-08-14T22:02:54.130Z,4.72
2023-08-14T22:05:21.535Z,4.55
2023-08-14T22:07:48.854Z,4.80
2023-08-14T22:10:16.305Z,4.72
2023-08-14T22:12:45.981Z,4.85
2023-08-14T22:15:13.629Z,5.18
2023-08-14T22:17:40.994Z,4.82
2023-08-14T22:20:11.343Z,4.90
2023-08-14T22:22:39.238Z,5.28
2023-08-14T22:25:08.420Z,4.28
2023-08-14T22:27:40.450Z,4.95
2023-08-14T22:30:08.407Z,4.30
2023-08-14T22:32:35.740Z,4.20
2023-08-14T22:35:03.191Z,4.20
2023-08-14T22:37:30.605Z,3.90
2023-08-14T22:39:58.047Z,4.10
2023-08-14T22:42:26.195Z,5.05
2023-08-14T22:44:53.557Z,5.20
2023-08-14T22:47:21.048Z,4.80
2023-08-14T22:49:48.535Z,4.30
2023-08-14T22:52:15.905Z,4.20
2023-08-14T22:54:43.409Z,4.30
2023-08-14T22:57:10.869Z,4.35
2023-08-14T22:59:38.264Z,4.20
2023-08-14T23:02:05.681Z,4.68
2023-08-14T23:04:33.041Z,4.30
2023-08-14T23:07:00.389Z,4.88
2023-08-14T23:09:27.793Z,4.63
2023-08-14T23:11:55.155Z,4.60
2023-08-14T23:14:22.408Z,4.10
2023-08-14T23:16:49.749Z,4.65
2023-08-14T23:19:17.103Z,4.80
2023-08-14T23:21:44.504Z,5.00
2023-08-14T23:24:11.856Z,4.45
2023-08-14T23:26:39.234Z,4.78
2023-08-14T23:29:06.610Z,4.18
2023-08-14T23:31:34.012Z,4.25
2023-08-14T23:34:01.366Z,5.10
2023-08-14T23:36:29.188Z,6.40
2023-08-14T23:38:56.476Z,4.95
2023-08-14T23:41:23.761Z,4.22
2023-08-14T23:43:51.055Z,4.70
2023-08-14T23:46:18.432Z,4.20
2023-08-14T23:48:45.734Z,4.53
2023-08-14T23:51:13.152Z,4.70
2023-08-14T23:53:40.507Z,4.53
2023-08-14T23:56:07.861Z,4.70
2023-08-14T23:58:35.199Z,4.63
